KJER

Details ICAO KJER
Name JEROME CO
Region United States
Timezone America/Boise (UTC-7.0)
Plans Departing 1
Arriving 1
Stats Elevation 4,053 ft / 1,235 m (AMSL)
Location 42.726682° -114.456644°
Runways 1
Magnetic Variation 12.646° E
Sunrise 2017-12-17 15:04:12 UTC / 2017-12-17 08:04:12 Local
Sunset 2017-12-18 00:06:44 UTC / 2017-12-17 17:06:44 Local
Advertisement - Login to hide

Runways

ID Width Length Bearing (true) Bearing (mag) Surface Threshold Offset Overrun Length
08 75 ft / 23 m 4,988 ft / 1,520 m 100.12° 87.47° Asphalt 0 ft / 0 m 0 ft / 0 m
26 75 ft / 23 m 4,988 ft / 1,520 m 280.13° 267.48° Asphalt 0 ft / 0 m 0 ft / 0 m

Map

Weather


0- 5 10 15 20 25 30 35+ Temperature / ° C

Clouds and Precipitation
Forecast for 2017-12-18 06:00 UTC. Updated 9 minutes ago

Ground ~20,000 ft ~40,000 ft Winds

METAR

KJER 180053Z AUTO 00000KT 10SM BKN049 OVC070 M01/M06 A3021 RMK AO2 SLP264 T10061061

TAF

TAF KJER 172323Z 1800/1824 VRB06KT P6SM SCT060 OVC100 FM181800 30006KT P6SM OVC250

Frequencies

Recorded 135.22 MHz ASOS
Approach 126.70 MHz TWIN FALLS APP/DEP
Unicom 122.80 MHz CTAF/UNICOM
Warning: Do not use this data for real-world aviation or navigation. No guarantee of current accuracy is given.